sensor_id;sensor_type;location;lat;lon;timestamp;temperature;humidity
7494;DHT22;3788;49.902;8.590;2023-07-31T00:01:03;19.20;92.30
7494;DHT22;3788;49.902;8.590;2023-07-31T00:03:30;19.20;92.20
7494;DHT22;3788;49.902;8.590;2023-07-31T00:05:57;19.20;92.10
7494;DHT22;3788;49.902;8.590;2023-07-31T00:08:24;19.20;91.90
7494;DHT22;3788;49.902;8.590;2023-07-31T00:10:51;19.20;91.90
7494;DHT22;3788;49.902;8.590;2023-07-31T00:13:18;19.20;91.80
7494;DHT22;3788;49.902;8.590;2023-07-31T00:15:45;19.20;91.70
7494;DHT22;3788;49.902;8.590;2023-07-31T00:18:12;19.20;91.70
7494;DHT22;3788;49.902;8.590;2023-07-31T00:20:38;19.20;91.70
7494;DHT22;3788;49.902;8.590;2023-07-31T00:23:06;19.20;91.60
7494;DHT22;3788;49.902;8.590;2023-07-31T00:25:34;19.20;91.60
7494;DHT22;3788;49.902;8.590;2023-07-31T00:28:00;19.20;91.60
7494;DHT22;3788;49.902;8.590;2023-07-31T00:30:27;19.20;91.50
7494;DHT22;3788;49.902;8.590;2023-07-31T00:32:54;19.30;91.50
7494;DHT22;3788;49.902;8.590;2023-07-31T00:35:20;19.30;91.50
7494;DHT22;3788;49.902;8.590;2023-07-31T00:37:47;19.30;91.40
7494;DHT22;3788;49.902;8.590;2023-07-31T00:40:14;19.30;91.50
7494;DHT22;3788;49.902;8.590;2023-07-31T00:42:42;19.30;91.40
7494;DHT22;3788;49.902;8.590;2023-07-31T00:45:09;19.30;91.80
7494;DHT22;3788;49.902;8.590;2023-07-31T00:47:36;19.30;91.40
7494;DHT22;3788;49.902;8.590;2023-07-31T00:50:03;19.30;91.40
7494;DHT22;3788;49.902;8.590;2023-07-31T00:52:29;19.30;91.40
7494;DHT22;3788;49.902;8.590;2023-07-31T00:54:56;19.30;91.40
7494;DHT22;3788;49.902;8.590;2023-07-31T00:57:23;19.30;91.40
7494;DHT22;3788;49.902;8.590;2023-07-31T00:59:51;19.30;91.50
7494;DHT22;3788;49.902;8.590;2023-07-31T01:02:18;19.20;91.40
7494;DHT22;3788;49.902;8.590;2023-07-31T01:04:45;19.20;91.40
7494;DHT22;3788;49.902;8.590;2023-07-31T01:07:17;19.30;91.50
7494;DHT22;3788;49.902;8.590;2023-07-31T01:09:49;19.20;91.40
7494;DHT22;3788;49.902;8.590;2023-07-31T01:12:22;19.20;91.40
7494;DHT22;3788;49.902;8.590;2023-07-31T01:15:03;19.20;91.40
7494;DHT22;3788;49.902;8.590;2023-07-31T01:17:31;19.20;91.50
7494;DHT22;3788;49.902;8.590;2023-07-31T01:20:02;19.20;91.50
7494;DHT22;3788;49.902;8.590;2023-07-31T01:22:45;19.20;91.50
7494;DHT22;3788;49.902;8.590;2023-07-31T01:25:25;19.20;91.60
7494;DHT22;3788;49.902;8.590;2023-07-31T01:28:04;19.20;91.70
7494;DHT22;3788;49.902;8.590;2023-07-31T01:30:33;19.10;91.60
7494;DHT22;3788;49.902;8.590;2023-07-31T01:33:02;19.10;91.60
7494;DHT22;3788;49.902;8.590;2023-07-31T01:35:32;19.20;91.60
7494;DHT22;3788;49.902;8.590;2023-07-31T01:37:59;19.20;91.50
7494;DHT22;3788;49.902;8.590;2023-07-31T01:40:26;19.20;91.50
7494;DHT22;3788;49.902;8.590;2023-07-31T01:42:53;19.20;91.40
7494;DHT22;3788;49.902;8.590;2023-07-31T01:45:21;19.20;91.40
7494;DHT22;3788;49.902;8.590;2023-07-31T01:47:47;19.20;91.40
7494;DHT22;3788;49.902;8.590;2023-07-31T01:50:14;19.20;91.30
7494;DHT22;3788;49.902;8.590;2023-07-31T01:52:41;19.20;91.40
7494;DHT22;3788;49.902;8.590;2023-07-31T01:55:08;19.20;91.40
7494;DHT22;3788;49.902;8.590;2023-07-31T01:57:36;19.20;91.40
7494;DHT22;3788;49.902;8.590;2023-07-31T02:00:04;19.20;91.50
7494;DHT22;3788;49.902;8.590;2023-07-31T02:02:33;19.20;91.60
7494;DHT22;3788;49.902;8.590;2023-07-31T02:04:59;19.20;91.70
7494;DHT22;3788;49.902;8.590;2023-07-31T02:07:26;19.10;91.60
7494;DHT22;3788;49.902;8.590;2023-07-31T02:09:53;19.10;91.60
7494;DHT22;3788;49.902;8.590;2023-07-31T02:12:19;19.10;91.70
7494;DHT22;3788;49.902;8.590;2023-07-31T02:14:46;19.00;91.80
7494;DHT22;3788;49.902;8.590;2023-07-31T02:17:13;19.10;91.90
7494;DHT22;3788;49.902;8.590;2023-07-31T02:19:41;19.00;91.90
7494;DHT22;3788;49.902;8.590;2023-07-31T02:22:10;19.00;91.90
7494;DHT22;3788;49.902;8.590;2023-07-31T02:24:36;19.00;91.80
7494;DHT22;3788;49.902;8.590;2023-07-31T02:27:04;19.00;91.90
7494;DHT22;3788;49.902;8.590;2023-07-31T02:29:30;19.00;91.90
7494;DHT22;3788;49.902;8.590;2023-07-31T02:31:58;19.10;92.00
7494;DHT22;3788;49.902;8.590;2023-07-31T02:34:25;19.00;91.90
7494;DHT22;3788;49.902;8.590;2023-07-31T02:36:53;19.00;92.00
7494;DHT22;3788;49.902;8.590;2023-07-31T02:39:20;19.00;92.10
7494;DHT22;3788;49.902;8.590;2023-07-31T02:41:46;19.00;92.00
7494;DHT22;3788;49.902;8.590;2023-07-31T02:44:13;19.00;92.00
7494;DHT22;3788;49.902;8.590;2023-07-31T02:46:40;19.00;92.10
7494;DHT22;3788;49.902;8.590;2023-07-31T02:49:06;18.90;92.10
7494;DHT22;3788;49.902;8.590;2023-07-31T02:51:33;18.90;92.10
7494;DHT22;3788;49.902;8.590;2023-07-31T02:54:01;18.90;92.10
7494;DHT22;3788;49.902;8.590;2023-07-31T02:56:28;18.90;92.10
7494;DHT22;3788;49.902;8.590;2023-07-31T02:58:54;18.90;92.50
7494;DHT22;3788;49.902;8.590;2023-07-31T03:01:21;18.90;92.20
7494;DHT22;3788;49.902;8.590;2023-07-31T03:03:48;18.90;92.10
7494;DHT22;3788;49.902;8.590;2023-07-31T03:06:14;18.90;92.10
7494;DHT22;3788;49.902;8.590;2023-07-31T03:08:41;18.90;92.10
7494;DHT22;3788;49.902;8.590;2023-07-31T03:11:09;18.90;92.10
7494;DHT22;3788;49.902;8.590;2023-07-31T03:13:36;18.90;92.20
7494;DHT22;3788;49.902;8.590;2023-07-31T03:16:03;18.90;92.20
7494;DHT22;3788;49.902;8.590;2023-07-31T03:18:29;18.90;92.20
7494;DHT22;3788;49.902;8.590;2023-07-31T03:20:56;18.90;92.10
7494;DHT22;3788;49.902;8.590;2023-07-31T03:23:23;18.90;92.10
7494;DHT22;3788;49.902;8.590;2023-07-31T03:25:57;18.90;92.50
7494;DHT22;3788;49.902;8.590;2023-07-31T03:28:25;18.90;92.20
7494;DHT22;3788;49.902;8.590;2023-07-31T03:30:53;18.90;92.30
7494;DHT22;3788;49.902;8.590;2023-07-31T03:33:19;18.90;92.40
7494;DHT22;3788;49.902;8.590;2023-07-31T03:35:46;18.80;92.40
7494;DHT22;3788;49.902;8.590;2023-07-31T03:38:13;18.80;92.50
7494;DHT22;3788;49.902;8.590;2023-07-31T03:40:40;18.80;92.60
7494;DHT22;3788;49.902;8.590;2023-07-31T03:43:06;18.80;92.70
7494;DHT22;3788;49.902;8.590;2023-07-31T03:45:34;18.80;93.00
7494;DHT22;3788;49.902;8.590;2023-07-31T03:48:02;18.70;93.30
7494;DHT22;3788;49.902;8.590;2023-07-31T03:50:28;18.70;93.60
7494;DHT22;3788;49.902;8.590;2023-07-31T03:52:55;18.70;94.00
7494;DHT22;3788;49.902;8.590;2023-07-31T03:55:22;18.60;94.80
7494;DHT22;3788;49.902;8.590;2023-07-31T03:57:48;18.60;95.30
7494;DHT22;3788;49.902;8.590;2023-07-31T04:00:15;18.50;95.50
7494;DHT22;3788;49.902;8.590;2023-07-31T04:02:43;18.40;95.90
7494;DHT22;3788;49.902;8.590;2023-07-31T04:05:10;18.40;96.40
7494;DHT22;3788;49.902;8.590;2023-07-31T04:07:37;18.30;96.70
7494;DHT22;3788;49.902;8.590;2023-07-31T04:10:04;18.20;97.00
7494;DHT22;3788;49.902;8.590;2023-07-31T04:12:31;18.20;97.30
7494;DHT22;3788;49.902;8.590;2023-07-31T04:14:57;18.20;97.40
7494;DHT22;3788;49.902;8.590;2023-07-31T04:17:24;18.10;97.60
7494;DHT22;3788;49.902;8.590;2023-07-31T04:19:52;18.10;97.70
7494;DHT22;3788;49.902;8.590;2023-07-31T04:22:19;18.10;97.90
7494;DHT22;3788;49.902;8.590;2023-07-31T04:24:45;18.00;97.90
7494;DHT22;3788;49.902;8.590;2023-07-31T04:27:12;18.00;98.00
7494;DHT22;3788;49.902;8.590;2023-07-31T04:29:39;18.00;98.10
7494;DHT22;3788;49.902;8.590;2023-07-31T04:32:07;18.00;98.20
7494;DHT22;3788;49.902;8.590;2023-07-31T04:34:34;18.00;98.30
7494;DHT22;3788;49.902;8.590;2023-07-31T04:37:03;17.90;98.20
7494;DHT22;3788;49.902;8.590;2023-07-31T04:39:29;17.90;98.10
7494;DHT22;3788;49.902;8.590;2023-07-31T04:41:56;18.00;98.10
7494;DHT22;3788;49.902;8.590;2023-07-31T04:44:23;18.00;98.00
7494;DHT22;3788;49.902;8.590;2023-07-31T04:46:49;18.00;97.80
7494;DHT22;3788;49.902;8.590;2023-07-31T04:49:16;18.00;97.60
7494;DHT22;3788;49.902;8.590;2023-07-31T04:51:44;18.00;97.50
7494;DHT22;3788;49.902;8.590;2023-07-31T04:54:12;18.00;97.40
7494;DHT22;3788;49.902;8.590;2023-07-31T04:56:40;18.00;97.20
7494;DHT22;3788;49.902;8.590;2023-07-31T04:59:07;18.00;97.30
7494;DHT22;3788;49.902;8.590;2023-07-31T05:01:33;18.10;97.30
7494;DHT22;3788;49.902;8.590;2023-07-31T05:04:00;18.10;97.20
7494;DHT22;3788;49.902;8.590;2023-07-31T05:06:27;18.10;97.10
7494;DHT22;3788;49.902;8.590;2023-07-31T05:08:54;18.10;96.90
7494;DHT22;3788;49.902;8.590;2023-07-31T05:11:22;18.20;96.90
7494;DHT22;3788;49.902;8.590;2023-07-31T05:13:49;18.20;96.80
7494;DHT22;3788;49.902;8.590;2023-07-31T05:16:15;18.20;96.60
7494;DHT22;3788;49.902;8.590;2023-07-31T05:18:42;18.20;96.50
7494;DHT22;3788;49.902;8.590;2023-07-31T05:21:09;18.20;96.40
7494;DHT22;3788;49.902;8.590;2023-07-31T05:23:35;18.30;96.30
7494;DHT22;3788;49.902;8.590;2023-07-31T05:26:03;18.30;96.20
7494;DHT22;3788;49.902;8.590;2023-07-31T05:28:31;18.30;96.10
7494;DHT22;3788;49.902;8.590;2023-07-31T05:30:59;18.30;95.90
7494;DHT22;3788;49.902;8.590;2023-07-31T05:33:26;18.40;95.80
7494;DHT22;3788;49.902;8.590;2023-07-31T05:35:53;18.40;95.70
7494;DHT22;3788;49.902;8.590;2023-07-31T05:38:20;18.50;95.60
7494;DHT22;3788;49.902;8.590;2023-07-31T05:40:47;18.50;95.50
7494;DHT22;3788;49.902;8.590;2023-07-31T05:43:14;18.50;95.40
7494;DHT22;3788;49.902;8.590;2023-07-31T05:45:42;18.50;95.30
7494;DHT22;3788;49.902;8.590;2023-07-31T05:48:09;18.50;95.30
7494;DHT22;3788;49.902;8.590;2023-07-31T05:50:35;18.50;95.20
7494;DHT22;3788;49.902;8.590;2023-07-31T05:53:04;18.60;95.20
7494;DHT22;3788;49.902;8.590;2023-07-31T05:55:31;18.60;95.20
7494;DHT22;3788;49.902;8.590;2023-07-31T05:57:57;18.60;95.20
7494;DHT22;3788;49.902;8.590;2023-07-31T06:00:24;18.60;95.20
7494;DHT22;3788;49.902;8.590;2023-07-31T06:02:52;18.60;95.10
7494;DHT22;3788;49.902;8.590;2023-07-31T06:05:19;18.60;95.20
7494;DHT22;3788;49.902;8.590;2023-07-31T06:07:45;18.60;95.30
7494;DHT22;3788;49.902;8.590;2023-07-31T06:10:12;18.60;95.20
7494;DHT22;3788;49.902;8.590;2023-07-31T06:12:39;18.60;95.30
7494;DHT22;3788;49.902;8.590;2023-07-31T06:15:06;18.70;95.30
7494;DHT22;3788;49.902;8.590;2023-07-31T06:17:33;18.70;95.20
7494;DHT22;3788;49.902;8.590;2023-07-31T06:20:01;18.80;95.10
7494;DHT22;3788;49.902;8.590;2023-07-31T06:22:30;18.80;94.80
7494;DHT22;3788;49.902;8.590;2023-07-31T06:24:57;18.90;94.80
7494;DHT22;3788;49.902;8.590;2023-07-31T06:27:24;19.00;94.60
7494;DHT22;3788;49.902;8.590;2023-07-31T06:29:51;19.00;94.40
7494;DHT22;3788;49.902;8.590;2023-07-31T06:32:18;19.20;94.50
7494;DHT22;3788;49.902;8.590;2023-07-31T06:34:44;19.30;94.30
7494;DHT22;3788;49.902;8.590;2023-07-31T06:37:13;19.40;94.10
7494;DHT22;3788;49.902;8.590;2023-07-31T06:39:40;19.60;93.90
7494;DHT22;3788;49.902;8.590;2023-07-31T06:42:06;19.70;93.60
7494;DHT22;3788;49.902;8.590;2023-07-31T06:44:33;19.70;93.40
7494;DHT22;3788;49.902;8.590;2023-07-31T06:47:00;19.70;93.30
7494;DHT22;3788;49.902;8.590;2023-07-31T06:49:26;19.70;93.30
7494;DHT22;3788;49.902;8.590;2023-07-31T06:51:53;19.70;93.10
7494;DHT22;3788;49.902;8.590;2023-07-31T06:54:21;19.70;93.00
7494;DHT22;3788;49.902;8.590;2023-07-31T06:56:49;19.80;93.20
7494;DHT22;3788;49.902;8.590;2023-07-31T06:59:16;19.90;93.20
7494;DHT22;3788;49.902;8.590;2023-07-31T07:01:42;19.90;93.10
7494;DHT22;3788;49.902;8.590;2023-07-31T07:04:09;20.00;93.20
7494;DHT22;3788;49.902;8.590;2023-07-31T07:06:36;20.10;93.00
7494;DHT22;3788;49.902;8.590;2023-07-31T07:09:03;20.10;92.90
7494;DHT22;3788;49.902;8.590;2023-07-31T07:11:31;20.10;92.90
7494;DHT22;3788;49.902;8.590;2023-07-31T07:13:57;20.20;92.90
7494;DHT22;3788;49.902;8.590;2023-07-31T07:16:24;20.30;92.90
7494;DHT22;3788;49.902;8.590;2023-07-31T07:18:51;20.40;92.70
7494;DHT22;3788;49.902;8.590;2023-07-31T07:21:17;20.50;92.50
7494;DHT22;3788;49.902;8.590;2023-07-31T07:23:44;20.60;92.60
7494;DHT22;3788;49.902;8.590;2023-07-31T07:26:11;20.60;92.60
7494;DHT22;3788;49.902;8.590;2023-07-31T07:28:40;20.60;92.60
7494;DHT22;3788;49.902;8.590;2023-07-31T07:31:06;20.60;92.50
7494;DHT22;3788;49.902;8.590;2023-07-31T07:33:33;20.70;92.30
7494;DHT22;3788;49.902;8.590;2023-07-31T07:36:00;20.70;92.30
7494;DHT22;3788;49.902;8.590;2023-07-31T07:38:27;20.70;92.30
7494;DHT22;3788;49.902;8.590;2023-07-31T07:40:54;20.70;92.30
7494;DHT22;3788;49.902;8.590;2023-07-31T07:43:21;20.70;92.40
7494;DHT22;3788;49.902;8.590;2023-07-31T07:45:49;20.80;92.50
7494;DHT22;3788;49.902;8.590;2023-07-31T07:48:16;20.80;92.40
7494;DHT22;3788;49.902;8.590;2023-07-31T07:50:43;20.80;92.10
7494;DHT22;3788;49.902;8.590;2023-07-31T07:53:10;20.70;92.10
7494;DHT22;3788;49.902;8.590;2023-07-31T07:55:36;20.60;92.10
7494;DHT22;3788;49.902;8.590;2023-07-31T07:58:03;20.50;92.30
7494;DHT22;3788;49.902;8.590;2023-07-31T08:00:30;20.50;92.40
7494;DHT22;3788;49.902;8.590;2023-07-31T08:02:58;20.50;92.40
7494;DHT22;3788;49.902;8.590;2023-07-31T08:05:25;20.60;92.40
7494;DHT22;3788;49.902;8.590;2023-07-31T08:07:51;20.70;92.40
7494;DHT22;3788;49.902;8.590;2023-07-31T08:10:18;21.10;92.30
7494;DHT22;3788;49.902;8.590;2023-07-31T08:12:45;21.60;91.90
7494;DHT22;3788;49.902;8.590;2023-07-31T08:15:12;22.00;91.40
7494;DHT22;3788;49.902;8.590;2023-07-31T08:17:38;22.10;91.10
7494;DHT22;3788;49.902;8.590;2023-07-31T08:20:08;22.10;90.90
7494;DHT22;3788;49.902;8.590;2023-07-31T08:22:35;21.90;90.60
7494;DHT22;3788;49.902;8.590;2023-07-31T08:25:01;21.80;90.80
7494;DHT22;3788;49.902;8.590;2023-07-31T08:27:28;21.80;91.00
7494;DHT22;3788;49.902;8.590;2023-07-31T08:29:55;22.30;91.10
7494;DHT22;3788;49.902;8.590;2023-07-31T08:32:22;23.20;90.40
7494;DHT22;3788;49.902;8.590;2023-07-31T08:34:48;23.80;87.30
7494;DHT22;3788;49.902;8.590;2023-07-31T08:37:16;24.10;86.10
7494;DHT22;3788;49.902;8.590;2023-07-31T08:39:43;24.20;86.00
7494;DHT22;3788;49.902;8.590;2023-07-31T08:42:10;24.10;85.80
7494;DHT22;3788;49.902;8.590;2023-07-31T08:44:37;24.10;86.20
7494;DHT22;3788;49.902;8.590;2023-07-31T08:47:05;24.20;85.60
7494;DHT22;3788;49.902;8.590;2023-07-31T08:49:33;24.00;85.10
7494;DHT22;3788;49.902;8.590;2023-07-31T08:52:01;23.80;85.60
7494;DHT22;3788;49.902;8.590;2023-07-31T08:54:30;23.60;85.90
7494;DHT22;3788;49.902;8.590;2023-07-31T08:56:58;23.60;86.30
7494;DHT22;3788;49.902;8.590;2023-07-31T08:59:27;23.60;86.50
7494;DHT22;3788;49.902;8.590;2023-07-31T09:01:55;23.40;87.00
7494;DHT22;3788;49.902;8.590;2023-07-31T09:04:24;23.20;86.50
7494;DHT22;3788;49.902;8.590;2023-07-31T09:06:54;22.90;87.20
7494;DHT22;3788;49.902;8.590;2023-07-31T09:09:23;22.80;87.80
7494;DHT22;3788;49.902;8.590;2023-07-31T09:11:51;22.70;88.40
7494;DHT22;3788;49.902;8.590;2023-07-31T09:14:18;22.60;88.50
7494;DHT22;3788;49.902;8.590;2023-07-31T09:16:53;22.50;88.80
7494;DHT22;3788;49.902;8.590;2023-07-31T09:19:27;22.40;88.00
7494;DHT22;3788;49.902;8.590;2023-07-31T09:21:54;22.30;89.60
7494;DHT22;3788;49.902;8.590;2023-07-31T09:24:28;22.10;90.30
7494;DHT22;3788;49.902;8.590;2023-07-31T09:26:58;22.00;90.80
7494;DHT22;3788;49.902;8.590;2023-07-31T09:29:26;22.10;90.80
7494;DHT22;3788;49.902;8.590;2023-07-31T09:31:53;22.10;90.60
7494;DHT22;3788;49.902;8.590;2023-07-31T09:34:28;22.30;90.10
7494;DHT22;3788;49.902;8.590;2023-07-31T09:36:54;22.40;88.80
7494;DHT22;3788;49.902;8.590;2023-07-31T09:39:22;22.70;88.60
7494;DHT22;3788;49.902;8.590;2023-07-31T09:41:54;22.90;87.50
7494;DHT22;3788;49.902;8.590;2023-07-31T09:44:37;22.90;87.10
7494;DHT22;3788;49.902;8.590;2023-07-31T09:47:05;23.00;86.60
7494;DHT22;3788;49.902;8.590;2023-07-31T09:49:32;23.10;86.60
7494;DHT22;3788;49.902;8.590;2023-07-31T09:51:59;23.20;85.90
7494;DHT22;3788;49.902;8.590;2023-07-31T09:54:25;23.20;84.90
7494;DHT22;3788;49.902;8.590;2023-07-31T09:56:52;23.20;84.90
7494;DHT22;3788;49.902;8.590;2023-07-31T09:59:21;23.20;85.00
7494;DHT22;3788;49.902;8.590;2023-07-31T10:01:49;23.10;85.20
7494;DHT22;3788;49.902;8.590;2023-07-31T10:04:18;23.00;84.90
7494;DHT22;3788;49.902;8.590;2023-07-31T10:06:53;23.10;85.40
7494;DHT22;3788;49.902;8.590;2023-07-31T10:09:21;23.10;85.20
7494;DHT22;3788;49.902;8.590;2023-07-31T10:11:55;23.20;85.90
7494;DHT22;3788;49.902;8.590;2023-07-31T10:14:24;23.20;85.10
7494;DHT22;3788;49.902;8.590;2023-07-31T10:16:55;23.30;83.90
7494;DHT22;3788;49.902;8.590;2023-07-31T10:19:23;23.30;82.90
7494;DHT22;3788;49.902;8.590;2023-07-31T10:21:50;23.40;84.00
7494;DHT22;3788;49.902;8.590;2023-07-31T10:24:22;23.40;83.80
7494;DHT22;3788;49.902;8.590;2023-07-31T10:26:52;23.50;82.80
7494;DHT22;3788;49.902;8.590;2023-07-31T10:29:20;23.50;82.90
7494;DHT22;3788;49.902;8.590;2023-07-31T10:31:51;23.50;82.70
7494;DHT22;3788;49.902;8.590;2023-07-31T10:34:19;23.50;82.70
7494;DHT22;3788;49.902;8.590;2023-07-31T10:36:45;23.50;82.60
7494;DHT22;3788;49.902;8.590;2023-07-31T10:39:33;23.50;83.20
7494;DHT22;3788;49.902;8.590;2023-07-31T10:42:09;23.60;83.30
7494;DHT22;3788;49.902;8.590;2023-07-31T10:44:36;23.60;82.70
7494;DHT22;3788;49.902;8.590;2023-07-31T10:47:04;23.50;82.60
7494;DHT22;3788;49.902;8.590;2023-07-31T10:49:33;23.50;83.40
7494;DHT22;3788;49.902;8.590;2023-07-31T10:51:59;23.70;83.30
7494;DHT22;3788;49.902;8.590;2023-07-31T10:54:29;23.90;83.50
7494;DHT22;3788;49.902;8.590;2023-07-31T10:56:56;24.10;82.20
7494;DHT22;3788;49.902;8.590;2023-07-31T10:59:26;24.20;81.40
7494;DHT22;3788;49.902;8.590;2023-07-31T11:01:55;24.20;81.00
7494;DHT22;3788;49.902;8.590;2023-07-31T11:04:25;24.20;80.80
7494;DHT22;3788;49.902;8.590;2023-07-31T11:06:56;24.10;81.60
7494;DHT22;3788;49.902;8.590;2023-07-31T11:09:27;24.10;81.60
7494;DHT22;3788;49.902;8.590;2023-07-31T11:11:55;24.00;81.70
7494;DHT22;3788;49.902;8.590;2023-07-31T11:14:22;23.90;82.20
7494;DHT22;3788;49.902;8.590;2023-07-31T11:16:50;23.80;82.20
7494;DHT22;3788;49.902;8.590;2023-07-31T11:19:21;23.60;82.50
7494;DHT22;3788;49.902;8.590;2023-07-31T11:21:49;23.50;82.70
7494;DHT22;3788;49.902;8.590;2023-07-31T11:24:16;23.30;83.60
7494;DHT22;3788;49.902;8.590;2023-07-31T11:26:49;23.20;83.60
7494;DHT22;3788;49.902;8.590;2023-07-31T11:29:15;23.20;84.10
7494;DHT22;3788;49.902;8.590;2023-07-31T11:31:42;23.30;84.30
7494;DHT22;3788;49.902;8.590;2023-07-31T11:34:10;23.40;83.70
7494;DHT22;3788;49.902;8.590;2023-07-31T11:36:37;23.40;83.00
7494;DHT22;3788;49.902;8.590;2023-07-31T11:39:07;23.50;83.40
7494;DHT22;3788;49.902;8.590;2023-07-31T11:41:34;23.50;83.30
7494;DHT22;3788;49.902;8.590;2023-07-31T11:44:01;23.60;83.50
7494;DHT22;3788;49.902;8.590;2023-07-31T11:46:30;23.60;83.40
7494;DHT22;3788;49.902;8.590;2023-07-31T11:48:59;23.50;83.60
7494;DHT22;3788;49.902;8.590;2023-07-31T11:51:26;23.40;83.80
7494;DHT22;3788;49.902;8.590;2023-07-31T11:53:56;23.30;84.10
7494;DHT22;3788;49.902;8.590;2023-07-31T11:56:25;23.20;84.00
7494;DHT22;3788;49.902;8.590;2023-07-31T11:58:55;23.20;84.40
7494;DHT22;3788;49.902;8.590;2023-07-31T12:01:23;23.10;84.10
7494;DHT22;3788;49.902;8.590;2023-07-31T12:03:51;23.00;84.70
7494;DHT22;3788;49.902;8.590;2023-07-31T12:06:18;23.00;84.70
7494;DHT22;3788;49.902;8.590;2023-07-31T12:08:46;23.10;84.60
7494;DHT22;3788;49.902;8.590;2023-07-31T12:11:13;23.10;85.10
7494;DHT22;3788;49.902;8.590;2023-07-31T12:13:41;23.10;84.80
7494;DHT22;3788;49.902;8.590;2023-07-31T12:16:08;23.10;84.70
7494;DHT22;3788;49.902;8.590;2023-07-31T12:18:36;23.00;84.60
7494;DHT22;3788;49.902;8.590;2023-07-31T12:21:05;23.10;84.60
7494;DHT22;3788;49.902;8.590;2023-07-31T12:23:33;23.10;84.50
7494;DHT22;3788;49.902;8.590;2023-07-31T12:26:00;23.00;84.70
7494;DHT22;3788;49.902;8.590;2023-07-31T12:28:27;23.00;84.90
7494;DHT22;3788;49.902;8.590;2023-07-31T12:30:58;22.90;84.90
7494;DHT22;3788;49.902;8.590;2023-07-31T12:33:31;22.90;84.90
7494;DHT22;3788;49.902;8.590;2023-07-31T12:36:00;22.80;85.00
7494;DHT22;3788;49.902;8.590;2023-07-31T12:38:26;22.80;85.20
7494;DHT22;3788;49.902;8.590;2023-07-31T12:40:53;22.70;85.40
7494;DHT22;3788;49.902;8.590;2023-07-31T12:43:20;22.70;85.80
7494;DHT22;3788;49.902;8.590;2023-07-31T12:45:46;22.70;85.80
7494;DHT22;3788;49.902;8.590;2023-07-31T12:48:15;22.70;85.70
7494;DHT22;3788;49.902;8.590;2023-07-31T12:50:41;22.80;85.90
7494;DHT22;3788;49.902;8.590;2023-07-31T12:53:08;22.80;86.30
7494;DHT22;3788;49.902;8.590;2023-07-31T12:55:35;22.80;86.30
7494;DHT22;3788;49.902;8.590;2023-07-31T12:58:02;22.80;85.90
7494;DHT22;3788;49.902;8.590;2023-07-31T13:00:29;22.90;86.10
7494;DHT22;3788;49.902;8.590;2023-07-31T13:02:55;22.90;86.00
7494;DHT22;3788;49.902;8.590;2023-07-31T13:05:23;22.90;85.80
7494;DHT22;3788;49.902;8.590;2023-07-31T13:07:50;23.00;85.90
7494;DHT22;3788;49.902;8.590;2023-07-31T13:10:17;23.00;85.90
7494;DHT22;3788;49.902;8.590;2023-07-31T13:12:43;23.00;85.40
7494;DHT22;3788;49.902;8.590;2023-07-31T13:15:10;23.00;85.60
7494;DHT22;3788;49.902;8.590;2023-07-31T13:17:37;23.10;85.50
7494;DHT22;3788;49.902;8.590;2023-07-31T13:20:04;23.10;84.90
7494;DHT22;3788;49.902;8.590;2023-07-31T13:22:33;23.20;84.60
7494;DHT22;3788;49.902;8.590;2023-07-31T13:25:00;23.20;84.10
7494;DHT22;3788;49.902;8.590;2023-07-31T13:27:27;23.30;84.40
7494;DHT22;3788;49.902;8.590;2023-07-31T13:29:54;23.20;84.70
7494;DHT22;3788;49.902;8.590;2023-07-31T13:32:21;23.20;85.00
7494;DHT22;3788;49.902;8.590;2023-07-31T13:34:48;23.20;84.70
7494;DHT22;3788;49.902;8.590;2023-07-31T13:37:15;23.20;84.60
7494;DHT22;3788;49.902;8.590;2023-07-31T13:39:43;23.20;84.40
7494;DHT22;3788;49.902;8.590;2023-07-31T13:42:10;23.20;84.40
7494;DHT22;3788;49.902;8.590;2023-07-31T13:44:38;23.20;84.90
7494;DHT22;3788;49.902;8.590;2023-07-31T13:47:04;23.20;85.40
7494;DHT22;3788;49.902;8.590;2023-07-31T13:49:32;23.10;85.40
7494;DHT22;3788;49.902;8.590;2023-07-31T13:51:59;23.20;85.60
7494;DHT22;3788;49.902;8.590;2023-07-31T13:54:26;23.20;85.40
7494;DHT22;3788;49.902;8.590;2023-07-31T13:56:54;23.20;85.60
7494;DHT22;3788;49.902;8.590;2023-07-31T13:59:21;23.10;85.80
7494;DHT22;3788;49.902;8.590;2023-07-31T14:01:48;23.10;85.60
7494;DHT22;3788;49.902;8.590;2023-07-31T14:04:14;23.10;85.70
7494;DHT22;3788;49.902;8.590;2023-07-31T14:06:42;23.10;85.90
7494;DHT22;3788;49.902;8.590;2023-07-31T14:09:09;23.00;86.00
7494;DHT22;3788;49.902;8.590;2023-07-31T14:11:36;23.00;86.60
7494;DHT22;3788;49.902;8.590;2023-07-31T14:14:04;22.90;87.00
7494;DHT22;3788;49.902;8.590;2023-07-31T14:16:31;23.00;87.10
7494;DHT22;3788;49.902;8.590;2023-07-31T14:18:57;22.90;86.90
7494;DHT22;3788;49.902;8.590;2023-07-31T14:21:25;22.90;87.10
7494;DHT22;3788;49.902;8.590;2023-07-31T14:23:51;22.80;86.90
7494;DHT22;3788;49.902;8.590;2023-07-31T14:26:18;22.80;87.30
7494;DHT22;3788;49.902;8.590;2023-07-31T14:28:45;22.80;87.70
7494;DHT22;3788;49.902;8.590;2023-07-31T14:31:13;22.80;87.90
7494;DHT22;3788;49.902;8.590;2023-07-31T14:33:39;22.70;87.70
7494;DHT22;3788;49.902;8.590;2023-07-31T14:36:06;22.70;87.60
7494;DHT22;3788;49.902;8.590;2023-07-31T14:38:33;22.70;87.30
7494;DHT22;3788;49.902;8.590;2023-07-31T14:40:59;22.70;87.00
7494;DHT22;3788;49.902;8.590;2023-07-31T14:43:26;22.60;87.10
7494;DHT22;3788;49.902;8.590;2023-07-31T14:45:52;22.60;87.30
7494;DHT22;3788;49.902;8.590;2023-07-31T14:48:22;22.60;87.60
7494;DHT22;3788;49.902;8.590;2023-07-31T14:50:49;22.60;87.40
7494;DHT22;3788;49.902;8.590;2023-07-31T14:53:16;22.60;87.60
7494;DHT22;3788;49.902;8.590;2023-07-31T14:55:42;22.50;87.40
7494;DHT22;3788;49.902;8.590;2023-07-31T14:58:09;22.60;87.00
7494;DHT22;3788;49.902;8.590;2023-07-31T15:00:36;22.60;87.00
7494;DHT22;3788;49.902;8.590;2023-07-31T15:03:03;22.60;87.50
7494;DHT22;3788;49.902;8.590;2023-07-31T15:05:31;22.60;87.70
7494;DHT22;3788;49.902;8.590;2023-07-31T15:07:58;22.60;87.80
7494;DHT22;3788;49.902;8.590;2023-07-31T15:10:24;22.60;87.60
7494;DHT22;3788;49.902;8.590;2023-07-31T15:12:51;22.60;87.70
7494;DHT22;3788;49.902;8.590;2023-07-31T15:15:18;22.60;88.10
7494;DHT22;3788;49.902;8.590;2023-07-31T15:17:44;22.50;88.10
7494;DHT22;3788;49.902;8.590;2023-07-31T15:20:11;22.50;88.20
7494;DHT22;3788;49.902;8.590;2023-07-31T15:22:39;22.50;88.70
7494;DHT22;3788;49.902;8.590;2023-07-31T15:25:07;22.50;88.50
7494;DHT22;3788;49.902;8.590;2023-07-31T15:27:34;22.50;88.50
7494;DHT22;3788;49.902;8.590;2023-07-31T15:30:01;22.50;88.40
7494;DHT22;3788;49.902;8.590;2023-07-31T15:32:30;22.50;88.50
7494;DHT22;3788;49.902;8.590;2023-07-31T15:34:57;22.50;88.80
7494;DHT22;3788;49.902;8.590;2023-07-31T15:37:24;22.50;88.70
7494;DHT22;3788;49.902;8.590;2023-07-31T15:39:52;22.50;89.00
7494;DHT22;3788;49.902;8.590;2023-07-31T15:42:18;22.50;88.30
7494;DHT22;3788;49.902;8.590;2023-07-31T15:44:45;22.40;88.20
7494;DHT22;3788;49.902;8.590;2023-07-31T15:47:12;22.40;87.90
7494;DHT22;3788;49.902;8.590;2023-07-31T15:49:39;22.40;88.00
7494;DHT22;3788;49.902;8.590;2023-07-31T15:52:06;22.40;88.50
7494;DHT22;3788;49.902;8.590;2023-07-31T15:54:33;22.50;88.50
7494;DHT22;3788;49.902;8.590;2023-07-31T15:57:01;22.50;88.10
7494;DHT22;3788;49.902;8.590;2023-07-31T15:59:28;22.50;87.20
7494;DHT22;3788;49.902;8.590;2023-07-31T16:01:54;22.50;85.70
7494;DHT22;3788;49.902;8.590;2023-07-31T16:04:21;22.60;85.40